Time;durP1;ratioP1;P1;durP2;ratioP2;P2;SDS_P1;SDS_P2;PMS_P1;PMS_P2;Temp;Humidity;BMP_temperature;BMP_pressure;BME280_temperature;BME280_humidity;BME280_pressure;Samples;Min_cycle;Max_cycle;Signal;HPM_P1;HPM_P2
2021/09/29 00:00:52;;;;;;;13.68;6.95;;;;;;;10.84;83.23;101525.75;5068074;28;20111;-68
2021/09/29 00:03:17;;;;;;;10.00;6.07;;;;;;;10.79;83.39;101520.97;5066682;28;20024;-67
2021/09/29 00:05:44;;;;;;;12.20;6.32;;;;;;;10.75;83.21;101513.63;5062923;28;20037;-68
2021/09/29 00:08:10;;;;;;;12.23;6.68;;;;;;;10.73;83.40;101515.53;5059747;28;20082;-68
2021/09/29 00:10:38;;;;;;;14.10;5.80;;;;;;;10.66;83.29;101513.50;5065560;28;20482;-67
2021/09/29 00:13:04;;;;;;;17.85;6.78;;;;;;;10.68;83.02;101506.41;5065038;28;20032;-68
2021/09/29 00:15:30;;;;;;;9.45;4.97;;;;;;;10.67;83.06;101506.53;5057898;28;20040;-68
2021/09/29 00:17:55;;;;;;;13.73;6.45;;;;;;;10.58;83.73;101502.97;5066234;28;20027;-68
2021/09/29 00:20:21;;;;;;;10.10;4.72;;;;;;;10.54;84.40;101508.59;5065852;28;20394;-67
2021/09/29 00:22:46;;;;;;;11.98;5.95;;;;;;;10.53;84.15;101502.59;5059701;28;20531;-68
2021/09/29 00:25:14;;;;;;;16.35;6.05;;;;;;;10.53;84.23;101502.59;5060618;28;20086;-67
2021/09/29 00:27:46;;;;;;;19.98;8.15;;;;;;;10.48;84.22;101500.41;5065483;28;20036;-67
2021/09/29 00:30:13;;;;;;;18.70;6.47;;;;;;;10.56;83.97;101489.34;5059189;28;20039;-68
2021/09/29 00:32:41;;;;;;;12.18;6.35;;;;;;;10.55;84.24;101495.50;5064923;28;20056;-68
2021/09/29 00:35:09;;;;;;;11.85;6.15;;;;;;;10.46;84.82;101489.38;5058419;28;20036;-68
2021/09/29 00:37:35;;;;;;;14.10;4.43;;;;;;;10.44;84.87;101483.50;5060859;28;20032;-68
2021/09/29 00:40:03;;;;;;;12.40;5.70;;;;;;;10.48;85.03;101481.44;5079049;28;20101;-68
2021/09/29 00:42:53;;;;;;;17.05;5.63;;;;;;;10.49;84.83;101476.13;5065572;28;20139;-67
2021/09/29 00:45:19;;;;;;;12.52;5.68;;;;;;;10.44;85.38;101474.91;5076212;28;20059;-67
2021/09/29 00:47:45;;;;;;;10.73;4.68;;;;;;;10.41;85.50;101464.81;5061126;28;20303;-67
2021/09/29 00:50:11;;;;;;;16.23;7.07;;;;;;;10.42;85.13;101474.22;5061168;28;20029;-67
2021/09/29 00:52:40;;;;;;;10.43;6.63;;;;;;;10.41;85.16;101467.41;5047469;28;20118;-67
2021/09/29 00:55:08;;;;;;;15.60;8.63;;;;;;;10.40;85.50;101461.41;5057289;28;20109;-68
2021/09/29 00:57:37;;;;;;;14.52;7.32;;;;;;;10.42;85.13;101461.28;5062993;28;20069;-68
2021/09/29 01:00:05;;;;;;;18.75;10.18;;;;;;;10.42;85.09;101456.09;5044436;28;20073;-68
2021/09/29 01:02:34;;;;;;;19.88;9.13;;;;;;;10.47;84.77;101451.28;5056186;28;20028;-68
2021/09/29 01:05:00;;;;;;;19.08;9.77;;;;;;;10.42;84.79;101453.50;5046197;28;20029;-67
2021/09/29 01:07:32;;;;;;;17.63;10.32;;;;;;;10.37;84.66;101445.31;5063223;28;20033;-67
2021/09/29 01:10:18;;;;;;;13.18;6.28;;;;;;;10.42;84.66;101440.53;5058248;28;20029;-67
2021/09/29 01:12:52;;;;;;;14.57;5.13;;;;;;;10.37;85.14;101438.34;5062542;28;20044;-67
2021/09/29 01:15:27;;;;;;;18.80;6.55;;;;;;;10.29;85.82;101438.19;5054396;28;20041;-67
2021/09/29 01:17:57;;;;;;;14.55;5.88;;;;;;;10.32;85.36;101436.19;5057575;28;20517;-68
2021/09/29 01:20:35;;;;;;;20.52;5.82;;;;;;;10.31;85.38;101434.53;5062141;28;20107;-68
2021/09/29 01:23:00;;;;;;;22.13;5.75;;;;;;;10.25;85.93;101429.88;5043227;28;20041;-67
2021/09/29 01:25:54;;;;;;;13.75;5.18;;;;;;;10.42;85.42;101430.97;5073437;28;20036;-67
2021/09/29 01:28:32;;;;;;;13.07;5.13;;;;;;;10.32;85.80;101422.38;5059250;28;20612;-68
2021/09/29 01:30:59;;;;;;;19.42;5.95;;;;;;;10.26;86.30;101428.09;5061138;28;20553;-67
2021/09/29 01:33:28;;;;;;;13.02;4.63;;;;;;;10.27;86.12;101404.63;5055103;28;20128;-67
2021/09/29 01:35:55;;;;;;;17.67;5.20;;;;;;;10.19;87.04;101407.09;5061339;28;20039;-67
2021/09/29 01:38:24;;;;;;;10.85;5.38;;;;;;;10.28;86.71;101398.50;5064200;28;20116;-67
2021/09/29 01:40:50;;;;;;;13.65;5.03;;;;;;;10.20;86.91;101397.56;5063195;28;20382;-68
2021/09/29 01:43:15;;;;;;;13.07;6.15;;;;;;;10.27;86.64;101401.22;5057600;28;20044;-67
2021/09/29 01:45:48;;;;;;;14.48;6.15;;;;;;;10.28;87.00;101392.47;5042541;28;20054;-68
2021/09/29 01:48:17;;;;;;;21.55;5.60;;;;;;;10.32;86.65;101389.50;5065778;28;20134;-68
2021/09/29 01:50:47;;;;;;;20.83;6.07;;;;;;;10.24;87.19;101384.16;5069724;28;20277;-67
2021/09/29 01:53:17;;;;;;;23.23;6.07;;;;;;;10.23;87.47;101379.94;5064999;28;20063;-68
2021/09/29 01:55:43;;;;;;;11.43;6.00;;;;;;;10.14;87.66;101379.00;5064440;28;20060;-68
2021/09/29 01:58:09;;;;;;;14.55;5.30;;;;;;;10.17;88.10;101377.94;5062460;28;20054;-67
2021/09/29 02:00:34;;;;;;;22.05;6.35;;;;;;;10.31;87.83;101376.69;5066350;28;20033;-67
2021/09/29 02:03:00;;;;;;;23.05;7.22;;;;;;;10.28;87.16;101371.75;5063839;28;20036;-67
2021/09/29 02:05:33;;;;;;;13.65;5.80;;;;;;;10.36;87.32;101358.94;5063134;28;20108;-67
2021/09/29 02:08:06;;;;;;;16.35;5.55;;;;;;;10.22;87.48;101361.94;5064288;28;20029;-67
2021/09/29 02:10:32;;;;;;;14.55;5.07;;;;;;;10.18;87.42;101366.59;5057499;28;20037;-67
2021/09/29 02:12:58;;;;;;;17.35;7.00;;;;;;;10.18;87.71;101364.00;5059450;28;20032;-68
2021/09/29 02:15:24;;;;;;;14.70;5.47;;;;;;;10.16;87.99;101355.53;5057913;28;20057;-67
2021/09/29 02:17:52;;;;;;;16.20;6.85;;;;;;;10.22;87.38;101361.94;5058029;28;20032;-67
2021/09/29 02:20:18;;;;;;;25.38;7.47;;;;;;;10.29;87.11;101357.84;5069330;28;20028;-68
2021/09/29 02:22:44;;;;;;;15.07;5.78;;;;;;;10.23;87.00;101359.22;5063348;28;20016;-68
2021/09/29 02:25:10;;;;;;;15.35;6.40;;;;;;;10.23;86.90;101346.25;5060058;28;20475;-68
2021/09/29 02:27:37;;;;;;;15.98;5.95;;;;;;;10.19;87.27;101352.69;5068303;28;20116;-68
2021/09/29 02:30:05;;;;;;;14.40;5.88;;;;;;;10.10;87.53;101351.72;5062814;28;20108;-67
2021/09/29 02:32:32;;;;;;;18.98;6.25;;;;;;;10.09;87.78;101357.06;5066249;28;20041;-68
2021/09/29 02:34:57;;;;;;;16.85;5.70;;;;;;;10.11;87.12;101348.19;5049194;28;20311;-68
2021/09/29 02:37:23;;;;;;;13.38;5.40;;;;;;;10.25;86.67;101346.94;5048625;28;20028;-68
2021/09/29 02:39:48;;;;;;;14.82;5.53;;;;;;;10.21;86.01;101339.56;5066852;28;20031;-68
2021/09/29 02:42:17;;;;;;;12.95;5.18;;;;;;;10.13;86.51;101341.09;5057080;28;20036;-67
2021/09/29 02:44:42;;;;;;;12.65;4.90;;;;;;;10.04;86.84;101343.69;5071236;28;20522;-68
2021/09/29 02:47:08;;;;;;;15.10;5.07;;;;;;;10.02;86.74;101332.66;5062033;28;20043;-68
2021/09/29 02:49:34;;;;;;;8.82;4.53;;;;;;;10.04;86.60;101331.56;5042344;28;20115;-68
2021/09/29 02:52:01;;;;;;;17.20;4.85;;;;;;;10.04;86.26;101325.53;5053373;28;20029;-68
2021/09/29 02:54:26;;;;;;;14.60;4.05;;;;;;;10.05;85.79;101325.41;5048344;28;20496;-68
2021/09/29 02:56:52;;;;;;;15.15;4.75;;;;;;;10.00;86.02;101316.41;5078780;28;20094;-68
2021/09/29 02:59:18;;;;;;;12.27;3.97;;;;;;;10.03;85.94;101319.56;5064741;28;20028;-69
2021/09/29 03:01:43;;;;;;;11.60;3.97;;;;;;;9.99;85.88;101312.22;5065472;28;20428;-68
2021/09/29 03:04:09;;;;;;;10.73;4.13;;;;;;;9.99;85.83;101317.41;5062708;28;20409;-68
2021/09/29 03:06:35;;;;;;;11.65;3.88;;;;;;;10.01;85.60;101318.06;5071456;28;20032;-67
2021/09/29 03:09:01;;;;;;;9.80;3.25;;;;;;;9.97;85.96;101319.31;5057535;28;20658;-68
2021/09/29 03:11:26;;;;;;;7.05;3.55;;;;;;;9.94;86.18;101315.22;5069623;28;20038;-67
2021/09/29 03:13:53;;;;;;;12.00;3.80;;;;;;;9.92;86.05;101311.94;5062330;28;20574;-68
2021/09/29 03:16:21;;;;;;;9.65;4.13;;;;;;;10.04;85.26;101310.00;5065868;28;20023;-68
2021/09/29 03:18:49;;;;;;;11.65;3.90;;;;;;;9.98;85.23;101315.75;5052391;28;20397;-68
2021/09/29 03:21:15;;;;;;;10.88;4.15;;;;;;;9.92;85.60;101311.94;5077503;28;20104;-68
2021/09/29 03:23:43;;;;;;;10.27;3.67;;;;;;;9.86;85.74;101299.56;5051461;28;20171;-67
2021/09/29 03:26:09;;;;;;;15.65;3.33;;;;;;;9.81;86.45;101301.72;5059298;28;20032;-70
2021/09/29 03:28:35;;;;;;;10.43;3.80;;;;;;;9.94;85.21;101304.84;5071597;28;20043;-70
2021/09/29 03:31:01;;;;;;;13.82;4.68;;;;;;;9.83;85.50;101295.47;5065356;28;20024;-69
2021/09/29 03:33:26;;;;;;;10.57;4.03;;;;;;;9.78;85.86;101292.47;5065116;28;20033;-70
2021/09/29 03:35:52;;;;;;;8.38;3.95;;;;;;;9.84;85.58;101289.31;5068461;28;20383;-70
2021/09/29 03:38:17;;;;;;;17.27;4.30;;;;;;;9.76;86.04;101281.44;5066272;28;20028;-70
2021/09/29 03:40:46;;;;;;;13.88;4.60;;;;;;;9.73;86.05;101289.47;5061682;28;20033;-70
2021/09/29 03:43:12;;;;;;;9.40;5.78;;;;;;;9.67;85.80;101285.66;5067561;28;20035;-70
2021/09/29 03:45:37;;;;;;;9.90;5.50;;;;;;;9.79;85.58;101280.34;5066394;28;20029;-69
2021/09/29 03:48:03;;;;;;;16.02;8.45;;;;;;;9.69;85.38;101282.94;5068874;28;20097;-71
2021/09/29 03:50:29;;;;;;;13.57;7.60;;;;;;;9.64;86.14;101278.16;5074576;28;20060;-70
2021/09/29 03:52:55;;;;;;;21.35;8.10;;;;;;;9.62;86.28;101274.09;5061784;28;20021;-70
2021/09/29 03:55:22;;;;;;;17.35;8.73;;;;;;;9.67;86.45;101269.31;5074896;28;20032;-70
2021/09/29 03:57:47;;;;;;;17.23;8.13;;;;;;;9.61;86.39;101264.72;5062310;28;20029;-69
2021/09/29 04:00:16;;;;;;;30.90;8.80;;;;;;;9.47;86.92;101264.16;5064948;28;20085;-70
2021/09/29 04:02:44;;;;;;;19.20;8.80;;;;;;;9.43;86.95;101257.63;5048315;28;20374;-69
2021/09/29 04:05:10;;;;;;;22.92;8.98;;;;;;;9.53;86.33;101263.63;5064311;28;20032;-69
2021/09/29 04:07:37;;;;;;;17.17;7.63;;;;;;;9.54;86.72;101264.44;5059162;28;20048;-70
2021/09/29 04:10:04;;;;;;;13.27;8.10;;;;;;;9.45;86.98;101254.91;5068614;28;20115;-70
2021/09/29 04:12:29;;;;;;;20.95;9.35;;;;;;;9.44;86.79;101254.09;5066795;28;20517;-70
2021/09/29 04:14:56;;;;;;;13.68;8.98;;;;;;;9.44;86.81;101254.09;5058479;28;20037;-70
2021/09/29 04:17:22;;;;;;;21.42;16.13;;;;;;;9.41;86.66;101251.75;5057427;28;20126;-70
2021/09/29 04:19:51;;;;;;;21.13;15.32;;;;;;;9.39;86.79;101258.84;5066647;28;20044;-71
2021/09/29 04:22:18;;;;;;;33.22;23.73;;;;;;;9.41;86.78;101256.94;5066786;28;20063;-70
2021/09/29 04:24:47;;;;;;;18.00;10.85;;;;;;;9.36;87.01;101251.34;5066633;28;20028;-70
2021/09/29 04:27:16;;;;;;;13.82;8.85;;;;;;;9.48;86.96;101252.84;5042484;28;20044;-70
2021/09/29 04:29:42;;;;;;;18.85;10.40;;;;;;;9.46;86.77;101251.38;5057590;28;20063;-70
2021/09/29 04:32:09;;;;;;;19.33;9.48;;;;;;;9.43;87.14;101256.81;5060711;28;20064;-71
2021/09/29 04:34:35;;;;;;;13.88;7.18;;;;;;;9.35;87.28;101253.13;5063486;28;20041;-69
2021/09/29 04:37:01;;;;;;;21.13;7.28;;;;;;;9.35;87.72;101242.78;5059468;28;20087;-71
2021/09/29 04:39:27;;;;;;;13.75;6.38;;;;;;;9.30;87.79;101244.13;5066541;28;20063;-69
2021/09/29 04:41:53;;;;;;;13.57;5.68;;;;;;;9.49;87.52;101241.56;5065062;28;20109;-71
2021/09/29 04:44:19;;;;;;;17.45;7.75;;;;;;;9.34;87.80;101241.16;5045433;28;20539;-70
2021/09/29 04:46:44;;;;;;;19.75;10.98;;;;;;;9.44;87.55;101241.16;5063226;28;20132;-71
2021/09/29 04:49:13;;;;;;;28.48;13.95;;;;;;;9.49;87.22;101240.72;5065340;28;20028;-70
2021/09/29 04:51:42;;;;;;;23.30;16.33;;;;;;;9.51;86.94;101237.06;5060223;28;20036;-71
2021/09/29 04:54:08;;;;;;;26.70;13.93;;;;;;;9.52;87.67;101227.50;5037304;28;20120;-70
2021/09/29 04:56:34;;;;;;;18.75;13.43;;;;;;;9.51;87.28;101231.88;5054639;28;20037;-70
2021/09/29 04:58:59;;;;;;;24.88;11.10;;;;;;;9.53;87.63;101234.31;5058604;28;20135;-70
2021/09/29 05:01:26;;;;;;;17.85;9.63;;;;;;;9.65;87.33;101232.41;5057856;28;20150;-70
2021/09/29 05:03:55;;;;;;;13.63;7.60;;;;;;;9.62;87.17;101230.88;5062854;28;20351;-70
2021/09/29 05:06:22;;;;;;;15.48;6.05;;;;;;;9.67;86.54;101220.13;5061392;28;20111;-70
2021/09/29 05:08:50;;;;;;;19.10;6.65;;;;;;;9.66;86.53;101221.91;5066416;28;20042;-70
2021/09/29 05:11:34;;;;;;;14.15;5.57;;;;;;;9.68;86.76;101221.75;5062672;28;20028;-70
2021/09/29 05:14:04;;;;;;;10.68;4.82;;;;;;;9.67;86.68;101225.31;5057936;28;20036;-70
2021/09/29 05:16:29;;;;;;;12.82;4.97;;;;;;;9.72;86.46;101218.75;5063978;28;20079;-71
2021/09/29 05:18:57;;;;;;;13.63;4.50;;;;;;;9.68;86.44;101213.97;5068652;28;20478;-71
2021/09/29 05:21:23;;;;;;;9.77;4.80;;;;;;;9.75;86.19;101215.06;5068894;28;20256;-70
2021/09/29 05:23:48;;;;;;;11.75;5.03;;;;;;;9.71;86.68;101218.88;5063050;28;20027;-70
2021/09/29 05:26:17;;;;;;;14.55;4.82;;;;;;;9.70;86.66;101222.41;5065024;28;20524;-70
2021/09/29 05:28:50;;;;;;;15.63;5.85;;;;;;;9.69;86.63;101225.97;5062643;28;20044;-71
2021/09/29 05:31:17;;;;;;;17.52;4.97;;;;;;;9.71;87.17;101229.25;5056106;28;20462;-69
2021/09/29 05:33:42;;;;;;;14.68;5.32;;;;;;;9.75;87.07;101225.41;5068825;28;20931;-69
2021/09/29 05:36:08;;;;;;;11.35;4.70;;;;;;;9.69;87.11;101231.97;5066673;28;20132;-69
2021/09/29 05:38:34;;;;;;;13.63;5.55;;;;;;;9.70;87.75;101236.19;5066430;28;20082;-70
2021/09/29 05:41:02;;;;;;;10.15;4.10;;;;;;;9.70;87.97;101236.19;5069050;28;20028;-70
2021/09/29 05:43:28;;;;;;;11.65;4.35;;;;;;;9.91;86.86;101236.00;5065581;28;20025;-69
2021/09/29 05:45:54;;;;;;;10.18;3.97;;;;;;;9.84;87.04;101239.31;5065364;28;20553;-70
2021/09/29 05:48:20;;;;;;;9.68;4.97;;;;;;;9.82;87.93;101234.25;5057570;28;20031;-70
2021/09/29 05:50:46;;;;;;;13.90;4.38;;;;;;;9.87;88.36;101236.41;5072281;28;20086;-70
2021/09/29 05:53:12;;;;;;;8.70;4.22;;;;;;;9.90;88.36;101234.38;5075101;28;20032;-69
2021/09/29 05:55:37;;;;;;;12.93;4.65;;;;;;;9.99;88.72;101234.50;5071610;28;20043;-70
2021/09/29 05:58:03;;;;;;;14.43;4.20;;;;;;;10.01;88.68;101228.19;5075133;28;20038;-69
2021/09/29 06:00:28;;;;;;;15.25;5.20;;;;;;;10.00;88.99;101234.34;5073123;28;20039;-69
2021/09/29 06:02:54;;;;;;;13.13;4.82;;;;;;;9.95;89.82;101231.38;5068186;28;20511;-70
2021/09/29 06:05:22;;;;;;;6.97;3.70;;;;;;;9.90;89.95;101242.13;5074239;28;20390;-70
2021/09/29 06:07:49;;;;;;;8.35;4.28;;;;;;;9.92;90.32;101229.84;5071366;28;20478;-69
2021/09/29 06:10:15;;;;;;;12.02;4.22;;;;;;;9.95;90.56;101231.38;5071180;28;20077;-69
2021/09/29 06:12:41;;;;;;;12.63;4.30;;;;;;;10.01;90.80;101229.97;5054010;28;20041;-69
2021/09/29 06:15:08;;;;;;;9.68;4.40;;;;;;;10.00;90.99;101228.34;5071708;28;20020;-69
2021/09/29 06:17:43;;;;;;;11.57;5.05;;;;;;;10.27;90.68;101223.19;5065373;28;20614;-69
2021/09/29 06:20:09;;;;;;;13.73;4.88;;;;;;;10.21;90.52;101228.97;5054630;28;20111;-68
2021/09/29 06:22:36;;;;;;;16.02;5.53;;;;;;;10.28;90.47;101218.81;5045887;28;20097;-69
2021/09/29 06:25:02;;;;;;;15.10;4.32;;;;;;;10.35;90.09;101213.91;5064683;28;20103;-69
2021/09/29 06:27:27;;;;;;;12.10;4.72;;;;;;;10.26;90.77;101212.97;5064304;28;20054;-69
2021/09/29 06:29:53;;;;;;;11.38;4.10;;;;;;;10.27;91.36;101207.63;5068111;28;20054;-69
2021/09/29 06:32:18;;;;;;;12.70;5.40;;;;;;;10.27;91.32;101202.47;5058360;28;20040;-69
2021/09/29 06:34:47;;;;;;;16.50;5.38;;;;;;;10.29;90.96;101208.31;5065204;28;20032;-69
2021/09/29 06:37:13;;;;;;;19.35;7.60;;;;;;;10.41;91.04;101208.16;5071200;28;20724;-69
2021/09/29 06:39:41;;;;;;;21.48;10.10;;;;;;;10.42;91.25;101208.00;5069374;28;20143;-70
2021/09/29 06:42:07;;;;;;;10.32;4.95;;;;;;;10.51;90.74;101208.94;5076849;28;20091;-69
2021/09/29 06:44:33;;;;;;;14.48;5.97;;;;;;;10.49;91.16;101203.88;5073313;28;20632;-70
2021/09/29 06:47:01;;;;;;;18.73;6.00;;;;;;;10.51;90.88;101208.94;5074470;28;20372;-69
2021/09/29 06:49:27;;;;;;;16.35;6.18;;;;;;;10.50;91.17;101207.28;5065906;28;20551;-70
2021/09/29 06:51:52;;;;;;;14.88;6.35;;;;;;;10.60;90.86;101213.22;5069561;28;20041;-69
2021/09/29 06:54:18;;;;;;;12.13;6.45;;;;;;;10.62;91.34;101208.69;5064312;28;20040;-69
2021/09/29 06:56:52;;;;;;;21.58;6.47;;;;;;;10.69;91.81;101209.75;5067784;28;20036;-69
2021/09/29 06:59:18;;;;;;;13.63;5.05;;;;;;;10.70;91.91;101205.38;5068839;28;20043;-69
2021/09/29 07:01:49;;;;;;;10.80;5.70;;;;;;;10.67;92.23;101205.69;5067324;28;20028;-69
2021/09/29 07:04:15;;;;;;;15.63;5.07;;;;;;;10.80;92.10;101197.53;5071812;28;20037;-69
2021/09/29 07:06:40;;;;;;;10.63;5.10;;;;;;;10.83;90.98;101199.81;5060922;28;20036;-70
2021/09/29 07:09:06;;;;;;;14.00;4.70;;;;;;;10.88;91.41;101201.00;5067443;28;20036;-69
2021/09/29 07:11:32;;;;;;;14.88;4.80;;;;;;;10.95;91.76;101203.03;5066296;28;20036;-69
2021/09/29 07:13:57;;;;;;;12.45;5.78;;;;;;;10.87;91.50;101206.38;5071537;28;20479;-69
2021/09/29 07:16:25;;;;;;;18.77;6.05;;;;;;;10.88;91.85;101216.56;5078448;28;20031;-70
2021/09/29 07:18:51;;;;;;;14.20;6.32;;;;;;;10.98;91.31;101198.38;5069091;28;20039;-69
2021/09/29 07:21:16;;;;;;;15.65;5.70;;;;;;;10.96;91.39;101199.47;5071724;28;20403;-69
2021/09/29 07:23:42;;;;;;;24.60;8.75;;;;;;;11.07;91.15;101200.03;5062408;28;20037;-69
2021/09/29 07:26:08;;;;;;;13.73;7.13;;;;;;;11.07;91.31;101201.81;5075122;28;20119;-69
2021/09/29 07:28:33;;;;;;;10.73;5.13;;;;;;;11.16;90.96;101198.34;5071872;28;20407;-69
2021/09/29 07:30:59;;;;;;;14.13;5.65;;;;;;;11.24;90.91;101203.59;5073115;28;20456;-70
2021/09/29 07:33:24;;;;;;;11.35;5.93;;;;;;;11.25;90.13;101204.41;5066124;28;20428;-69
2021/09/29 07:35:50;;;;;;;12.98;4.97;;;;;;;11.25;90.28;101196.63;5076664;28;20112;-69
2021/09/29 07:38:17;;;;;;;12.98;4.65;;;;;;;11.28;90.49;101201.50;5065744;28;20036;-69
2021/09/29 07:40:42;;;;;;;13.25;4.15;;;;;;;11.28;91.14;101191.13;5068701;28;20036;-69
2021/09/29 07:43:08;;;;;;;15.05;4.80;;;;;;;11.28;91.08;101199.75;5071337;28;20039;-69
2021/09/29 07:45:34;;;;;;;14.05;4.10;;;;;;;11.25;90.98;101186.25;5060274;28;20267;-70
2021/09/29 07:47:59;;;;;;;13.80;3.83;;;;;;;11.28;91.00;101191.94;5063350;28;20577;-71
2021/09/29 07:50:25;;;;;;;14.05;4.80;;;;;;;11.25;91.23;101189.66;5046498;28;20037;-70
2021/09/29 07:52:51;;;;;;;12.88;3.72;;;;;;;11.28;91.60;101178.97;5067989;28;20035;-70
2021/09/29 07:55:17;;;;;;;16.60;4.10;;;;;;;11.38;91.83;101194.44;5064474;28;20039;-69
2021/09/29 07:57:45;;;;;;;9.70;4.28;;;;;;;11.38;91.34;101186.66;5061967;28;20446;-69
2021/09/29 08:00:13;;;;;;;15.02;3.88;;;;;;;11.37;91.74;101179.03;5068168;28;20025;-70
2021/09/29 08:02:40;;;;;;;14.57;3.60;;;;;;;11.41;91.95;101181.16;5066176;28;20028;-70
2021/09/29 08:05:31;;;;;;;8.68;3.30;;;;;;;11.43;92.18;101184.44;5058704;28;20040;-69
2021/09/29 08:08:22;;;;;;;13.43;3.78;;;;;;;11.49;91.70;101180.41;5062310;28;20039;-70
2021/09/29 08:11:13;;;;;;;13.70;3.10;;;;;;;11.48;91.65;101195.16;5061483;28;20054;-70
2021/09/29 08:14:03;;;;;;;10.05;2.85;;;;;;;11.49;92.06;101190.81;5062383;28;20529;-70
2021/09/29 08:16:53;;;;;;;12.45;3.30;;;;;;;11.58;91.38;101192.47;5066043;28;20078;-70
2021/09/29 08:19:45;;;;;;;11.35;3.13;;;;;;;11.63;91.85;101190.22;5066049;28;20124;-70
2021/09/29 08:22:45;;;;;;;10.07;2.63;;;;;;;11.76;92.28;101191.59;5067339;28;20087;-70
2021/09/29 08:30:59;;;;;;;6.07;2.17;;;;;;;12.09;91.84;101184.78;5071081;28;20028;-69
2021/09/29 08:33:45;;;;;;;6.40;1.65;;;;;;;12.11;91.38;101182.88;5065372;28;20025;-69
2021/09/29 08:38:42;;;;;;;7.95;2.13;;;;;;;12.08;91.37;101175.38;5069290;28;20040;-70
2021/09/29 08:44:01;;;;;;;8.85;2.15;;;;;;;12.07;91.46;101181.53;5068080;28;20493;-70
2021/09/29 08:46:32;;;;;;;9.15;1.95;;;;;;;12.15;91.25;101181.59;5076972;28;20032;-70
2021/09/29 08:49:16;;;;;;;2.58;1.30;;;;;;;12.22;90.26;101197.34;5067551;28;20387;-70
2021/09/29 09:16:35;;;;;;;2.60;0.40;;;;;;;12.23;85.75;101236.22;5066948;28;20033;-70
2021/09/29 09:19:12;;;;;;;1.55;0.50;;;;;;;12.26;84.96;101238.50;5061343;28;20123;-69
2021/09/29 09:21:52;;;;;;;2.05;0.30;;;;;;;12.10;85.71;101235.03;5064453;28;20025;-71
2021/09/29 09:24:21;;;;;;;0.77;0.30;;;;;;;12.12;84.71;101246.88;5074055;28;20482;-67
2021/09/29 09:27:06;;;;;;;1.58;0.60;;;;;;;12.01;85.60;101252.34;5051853;28;20025;-67
2021/09/29 09:29:46;;;;;;;1.75;0.68;;;;;;;11.96;85.54;101259.78;5059910;28;20029;-67
2021/09/29 09:32:14;;;;;;;1.20;0.52;;;;;;;12.06;86.30;101257.91;5059443;28;20028;-67
2021/09/29 09:34:40;;;;;;;3.20;0.55;;;;;;;11.98;85.80;101263.88;5064767;28;20028;-68
2021/09/29 09:37:10;;;;;;;1.30;0.65;;;;;;;11.80;86.67;101271.69;5055849;28;20043;-68
2021/09/29 09:39:38;;;;;;;1.90;0.55;;;;;;;11.75;87.05;101276.50;5060686;28;20033;-67
2021/09/29 09:42:08;;;;;;;2.80;0.50;;;;;;;11.69;87.29;101280.53;5069161;28;20501;-68
2021/09/29 09:44:41;;;;;;;2.75;0.63;;;;;;;11.70;87.48;101283.97;5069200;28;20112;-67
2021/09/29 09:47:14;;;;;;;3.40;0.80;;;;;;;11.77;87.05;101289.34;5052851;28;20043;-67
2021/09/29 09:49:54;;;;;;;2.63;0.70;;;;;;;11.63;87.60;101286.34;5063420;28;20360;-67
2021/09/29 09:52:30;;;;;;;2.58;0.73;;;;;;;11.67;87.98;101285.06;5050167;28;20561;-68
2021/09/29 09:55:11;;;;;;;2.70;0.73;;;;;;;11.70;87.71;101281.38;5070942;28;20033;-68
2021/09/29 09:57:39;;;;;;;3.25;0.70;;;;;;;11.67;87.87;101289.44;5066671;28;20564;-67
2021/09/29 10:00:08;;;;;;;4.25;0.80;;;;;;;11.80;86.92;101291.66;5063019;28;20032;-68
2021/09/29 10:02:41;;;;;;;1.67;0.75;;;;;;;11.74;87.63;101280.09;5063353;28;20104;-67
2021/09/29 10:05:12;;;;;;;3.38;0.90;;;;;;;11.75;88.05;101284.31;5064041;28;20436;-66
2021/09/29 10:07:38;;;;;;;2.17;0.90;;;;;;;11.89;87.42;101282.94;5063794;28;20029;-67
2021/09/29 10:10:20;;;;;;;1.55;0.70;;;;;;;11.90;88.29;101278.59;5051425;28;20021;-67
2021/09/29 10:26:05;;;;;;;1.73;0.65;;;;;;;12.45;87.19;101278.22;5073583;28;20035;-67
2021/09/29 10:27:11;;;;;;;3.17;0.90;;;;;;;12.56;86.09;101264.13;5067375;28;20165;-69
2021/09/29 10:29:50;;;;;;;2.50;0.90;;;;;;;12.50;85.78;101259.56;5067167;28;20032;-67
2021/09/29 10:32:26;;;;;;;1.65;1.00;;;;;;;12.44;85.90;101274.00;5068163;28;20061;-68
2021/09/29 10:40:36;;;;;;;3.90;1.27;;;;;;;12.79;84.91;101283.41;5069240;28;20386;-68
2021/09/29 10:43:05;;;;;;;3.90;1.25;;;;;;;12.79;84.52;101272.16;5062642;28;20036;-68
2021/09/29 11:02:42;;;;;;;4.40;2.05;;;;;;;12.83;84.58;101289.09;5070594;28;20053;-67
2021/09/29 11:31:35;;;;;;;9.07;2.50;;;;;;;13.33;80.66;101324.66;5071925;28;20029;-67
2021/09/29 12:09:12;;;;;;;8.45;2.85;;;;;;;14.09;81.26;101371.41;5065625;28;20048;-67
2021/09/29 12:11:48;;;;;;;6.43;2.78;;;;;;;13.91;79.76;101355.97;5077954;28;20071;-67
2021/09/29 12:14:24;;;;;;;11.60;3.50;;;;;;;13.91;81.11;101351.56;5061548;28;20024;-67
2021/09/29 12:16:50;;;;;;;8.73;2.83;;;;;;;13.93;81.29;101351.41;5068168;28;20028;-67
2021/09/29 12:19:27;;;;;;;5.72;2.78;;;;;;;14.16;82.28;101352.31;5054060;28;20464;-67
2021/09/29 12:21:58;;;;;;;7.43;2.33;;;;;;;14.36;80.50;101354.59;5070047;28;20037;-67
2021/09/29 12:24:59;;;;;;;3.22;2.10;;;;;;;14.41;80.60;101363.53;5072932;28;20465;-68
2021/09/29 12:27:24;;;;;;;3.10;2.17;;;;;;;14.46;78.50;101372.66;5069452;28;20044;-67
2021/09/29 12:29:52;;;;;;;4.38;2.17;;;;;;;14.27;77.37;101387.69;5057925;28;20489;-68
2021/09/29 12:32:33;;;;;;;7.43;2.00;;;;;;;13.90;76.78;101489.88;5074737;28;20329;-66
2021/09/29 12:35:37;;;;;;;1.95;0.70;;;;;;;12.87;70.00;101510.81;5052975;28;20098;-66
2021/09/29 12:38:04;;;;;;;3.95;0.68;;;;;;;12.12;71.70;101509.44;5070246;28;20445;-66
2021/09/29 12:40:35;;;;;;;4.80;0.80;;;;;;;11.59;74.63;101523.16;5062470;28;20032;-68
2021/09/29 12:43:10;;;;;;;4.20;0.60;;;;;;;11.40;76.49;101519.69;5069971;28;20025;-67
2021/09/29 12:45:39;;;;;;;2.13;0.60;;;;;;;11.09;76.78;101521.72;5072095;28;20051;-67
2021/09/29 12:48:08;;;;;;;3.58;0.95;;;;;;;10.86;78.09;101526.44;5042805;28;20112;-68
2021/09/29 12:53:46;;;;;;;3.70;0.60;;;;;;;10.83;79.56;101503.34;5055185;28;20029;-68
2021/09/29 12:56:16;;;;;;;3.13;0.55;;;;;;;10.81;79.80;101487.94;5064405;28;20032;-68
2021/09/29 12:58:47;;;;;;;0.63;0.38;;;;;;;10.82;79.56;101478.38;5061361;28;20051;-67
2021/09/29 13:01:15;;;;;;;2.10;0.77;;;;;;;10.76;79.57;101458.19;5065549;28;20036;-68
2021/09/29 13:03:41;;;;;;;0.68;0.50;;;;;;;10.87;79.10;101445.88;5068148;28;20040;-67
2021/09/29 13:06:07;;;;;;;2.17;0.47;;;;;;;11.14;79.47;101420.88;5049296;28;20634;-67
2021/09/29 13:08:33;;;;;;;2.97;0.50;;;;;;;11.38;79.57;101428.13;5068703;28;20124;-67
2021/09/29 13:10:59;;;;;;;3.22;1.02;;;;;;;11.54;78.79;101450.03;5076352;28;20119;-67
2021/09/29 13:13:26;;;;;;;1.83;0.52;;;;;;;11.64;79.51;101458.56;5068786;28;20032;-68
2021/09/29 13:15:54;;;;;;;2.78;0.40;;;;;;;11.78;80.16;101472.88;5069108;28;20091;-68
2021/09/29 13:21:02;;;;;;;2.75;0.70;;;;;;;12.32;79.83;101475.47;5076142;28;20087;-68
2021/09/29 13:26:16;;;;;;;2.10;0.52;;;;;;;12.66;77.68;101486.78;5079827;28;20028;-68
2021/09/29 13:36:54;;;;;;;1.65;0.43;;;;;;;12.69;74.69;101501.25;5072912;28;20051;-67
2021/09/29 13:39:20;;;;;;;4.38;0.82;;;;;;;12.83;75.16;101508.50;5063882;28;20664;-68
2021/09/29 13:41:51;;;;;;;4.50;0.50;;;;;;;12.84;75.94;101504.13;5072400;28;20275;-67
2021/09/29 13:44:17;;;;;;;3.00;0.88;;;;;;;12.97;76.52;101509.72;5062959;28;20036;-67
2021/09/29 13:46:44;;;;;;;3.78;0.70;;;;;;;13.06;74.14;101521.00;5073116;28;20057;-67
2021/09/29 13:49:10;;;;;;;7.38;0.75;;;;;;;13.25;73.81;101525.16;5071260;28;20036;-67
2021/09/29 13:51:37;;;;;;;4.35;0.88;;;;;;;13.30;74.26;101533.38;5071934;28;20157;-68
2021/09/29 13:54:08;;;;;;;4.13;0.80;;;;;;;13.21;73.38;101535.06;5063064;28;20546;-67
2021/09/29 13:56:55;;;;;;;5.00;1.10;;;;;;;13.27;73.41;101536.25;5046085;28;20127;-67
2021/09/29 14:30:34;;;;;;;13.27;3.67;;;;;;;13.45;73.36;101570.06;5084365;28;20112;-68